Terminal Aerodrome Forecast
Issued by NWS

Home | Current Version | Previous Version | Text Only | Print | Product List | Glossary On
Versions: 1 2 3 4 5 6 7 8 9 10 11 12 13
000
FTUS44 KCRP 281740
TAFALI
TAF
KALI 281740Z 2818/2918 14015G20KT P6SM VCSH BKN040
      TEMPO 2818/2821 6SM -TSRA BKN035CB
     FM290100 13010KT P6SM SCT012 BKN028
     FM290600 13007KT 5SM BR BKN015
     FM291400 15015KT P6SM SCT025 BKN030=

USA.gov is the U.S. government's official web portal to all federal, state and local government web resources and services.